Time;durP1;ratioP1;P1;durP2;ratioP2;P2;SDS_P1;SDS_P2;PMS_P1;PMS_P2;Temp;Humidity;BMP_temperature;BMP_pressure;BME280_temperature;BME280_humidity;BME280_pressure;Samples;Min_cycle;Max_cycle;Signal;HPM_P1;HPM_P2
2024/01/13 00:02:13;;;;;;;20.58;3.65;;;;;;;1.92;100.00;102665.44;4906843;29;20059;-80
2024/01/13 00:04:40;;;;;;;16.80;3.58;;;;;;;1.93;100.00;102666.38;4908460;29;20051;-80
2024/01/13 00:07:08;;;;;;;19.38;3.60;;;;;;;1.90;100.00;102674.84;4896971;29;20062;-79
2024/01/13 00:09:35;;;;;;;12.48;3.20;;;;;;;1.90;100.00;102667.03;4887573;29;20052;-80
2024/01/13 00:12:03;;;;;;;14.18;3.88;;;;;;;1.91;100.00;102667.94;4917787;29;20044;-79
2024/01/13 00:14:30;;;;;;;17.70;4.78;;;;;;;1.89;100.00;102660.06;4910814;29;20417;-81
2024/01/13 00:16:58;;;;;;;16.02;3.60;;;;;;;1.89;100.00;102643.53;4931857;29;20054;-81
2024/01/13 00:19:25;;;;;;;12.15;3.50;;;;;;;1.89;100.00;102652.25;4889639;29;20060;-81
2024/01/13 00:21:53;;;;;;;12.85;3.88;;;;;;;1.90;100.00;102651.44;4891605;29;20055;-80
2024/01/13 00:24:21;;;;;;;17.38;4.82;;;;;;;1.90;100.00;102645.34;4916048;29;20079;-82
2024/01/13 00:26:48;;;;;;;15.23;4.22;;;;;;;1.91;100.00;102644.53;4893744;29;20058;-78
2024/01/13 00:29:15;;;;;;;15.93;4.22;;;;;;;1.91;100.00;102642.88;4894133;29;20051;-80
2024/01/13 00:31:43;;;;;;;20.67;4.70;;;;;;;1.90;100.00;102640.16;4914123;29;20126;-79
2024/01/13 00:34:10;;;;;;;15.13;5.60;;;;;;;1.91;100.00;102647.13;4893863;29;20051;-79
2024/01/13 00:36:38;;;;;;;20.70;4.82;;;;;;;1.89;100.00;102628.88;4899177;29;20060;-80
2024/01/13 00:39:07;;;;;;;19.23;4.60;;;;;;;1.88;100.00;102627.06;4933127;29;20052;-80
2024/01/13 00:41:34;;;;;;;17.98;5.00;;;;;;;1.88;100.00;102620.97;4885600;29;20052;-79
2024/01/13 00:44:02;;;;;;;18.33;4.60;;;;;;;1.88;100.00;102620.97;4895454;29;20052;-79
2024/01/13 00:46:29;;;;;;;15.95;4.35;;;;;;;1.86;100.00;102617.34;4870886;29;20036;-80
2024/01/13 00:48:57;;;;;;;26.02;5.00;;;;;;;1.85;100.00;102612.94;4886739;29;20052;-79
2024/01/13 00:51:25;;;;;;;15.20;4.50;;;;;;;1.83;100.00;102615.44;4875862;29;20055;-82
2024/01/13 00:53:53;;;;;;;15.23;4.43;;;;;;;1.81;100.00;102608.34;4869116;29;20044;-80
2024/01/13 00:56:20;;;;;;;34.65;5.63;;;;;;;1.79;100.00;102603.03;4892552;29;20422;-82
2024/01/13 00:58:48;;;;;;;26.23;5.10;;;;;;;1.78;100.00;102605.53;4886222;29;20060;-81
2024/01/13 01:01:16;;;;;;;15.77;4.32;;;;;;;1.77;100.00;102599.44;4877347;29;20061;-79
2024/01/13 01:03:45;;;;;;;20.10;4.97;;;;;;;1.77;100.00;102603.75;4890393;29;20061;-79
2024/01/13 01:06:15;;;;;;;12.63;3.87;;;;;;;1.77;100.00;102599.44;4886919;29;20122;-79
2024/01/13 01:08:42;;;;;;;8.93;3.63;;;;;;;1.79;100.00;102596.94;4875950;29;20079;-80
2024/01/13 01:11:11;;;;;;;5.57;3.92;;;;;;;1.80;100.00;102593.56;4874053;29;20057;-79
2024/01/13 01:13:39;;;;;;;9.02;3.58;;;;;;;1.82;100.00;102590.25;4883022;29;20064;-79
2024/01/13 01:16:07;;;;;;;9.23;3.70;;;;;;;1.82;100.00;102590.25;4876530;29;20079;-79
2024/01/13 01:18:35;;;;;;;4.30;3.15;;;;;;;1.84;100.00;102579.97;4893207;29;20059;-81
2024/01/13 01:21:14;;;;;;;10.50;3.70;;;;;;;1.83;100.00;102573.84;4906811;29;20056;-79
2024/01/13 01:23:45;;;;;;;7.00;3.85;;;;;;;1.84;100.00;102572.16;4877775;29;20530;-80
2024/01/13 01:26:13;;;;;;;9.68;3.85;;;;;;;1.83;100.00;102560.84;4894370;29;20057;-80
2024/01/13 01:28:40;;;;;;;8.88;3.65;;;;;;;1.84;100.00;102564.38;4886692;29;20439;-81
2024/01/13 01:31:08;;;;;;;11.57;4.43;;;;;;;1.85;100.00;102555.75;4875988;29;20060;-80
2024/01/13 01:33:37;;;;;;;11.70;4.00;;;;;;;1.85;100.00;102554.06;4891499;29;20052;-81
2024/01/13 01:36:07;;;;;;;11.82;4.15;;;;;;;1.87;100.00;102548.94;4886793;29;20060;-81
2024/01/13 01:38:36;;;;;;;7.57;4.43;;;;;;;1.85;100.00;102551.47;4861266;29;20052;-80
2024/01/13 01:41:13;;;;;;;10.38;4.25;;;;;;;1.86;100.00;102549.75;4909016;29;20075;-81
2024/01/13 01:43:43;;;;;;;14.98;4.10;;;;;;;1.84;100.00;102554.84;4901461;29;20469;-80
2024/01/13 01:46:13;;;;;;;17.75;4.68;;;;;;;1.85;100.00;102554.06;4874903;29;20044;-79
2024/01/13 01:48:42;;;;;;;8.63;3.67;;;;;;;1.85;100.00;102547.94;4888356;29;20049;-80
2024/01/13 01:51:17;;;;;;;14.23;4.68;;;;;;;1.85;100.00;102543.69;4904079;29;20059;-79
2024/01/13 01:53:47;;;;;;;12.15;3.83;;;;;;;1.87;100.00;102533.34;4902267;29;20044;-81
2024/01/13 01:56:22;;;;;;;8.05;3.60;;;;;;;1.88;100.00;102525.66;4910627;29;20048;-80
2024/01/13 01:58:52;;;;;;;4.03;3.00;;;;;;;1.90;100.00;102524.06;4900233;29;20060;-81
2024/01/13 02:01:22;;;;;;;9.30;3.35;;;;;;;1.93;100.00;102519.06;4892568;29;20493;-81
2024/01/13 02:03:52;;;;;;;8.68;3.28;;;;;;;1.95;100.00;102513.97;4909735;29;20040;-80
2024/01/13 02:06:21;;;;;;;10.63;3.63;;;;;;;1.97;100.00;102503.66;4894548;29;20051;-81
2024/01/13 02:08:49;;;;;;;8.38;3.65;;;;;;;1.95;100.00;102488.88;4887238;29;20060;-80
2024/01/13 02:11:17;;;;;;;8.63;3.50;;;;;;;1.94;100.00;102492.25;4911307;29;20072;-80
2024/01/13 02:13:46;;;;;;;12.15;4.22;;;;;;;1.91;100.00;102489.47;4891267;29;20414;-81
2024/01/13 02:16:15;;;;;;;12.60;3.80;;;;;;;1.92;100.00;102493.84;4905733;29;20040;-80
2024/01/13 02:18:44;;;;;;;9.90;2.97;;;;;;;1.92;100.00;102492.97;4882124;29;20063;-80
2024/01/13 02:21:13;;;;;;;8.50;3.42;;;;;;;1.92;100.00;102492.97;4910210;29;20496;-79
2024/01/13 02:23:43;;;;;;;7.65;3.42;;;;;;;1.92;100.00;102486.06;4901341;29;20465;-79
2024/01/13 02:26:11;;;;;;;12.40;3.60;;;;;;;1.93;100.00;102484.38;4894612;29;20474;-79
2024/01/13 02:28:39;;;;;;;9.02;3.45;;;;;;;1.91;100.00;102489.47;4907968;29;20047;-80
2024/01/13 02:31:16;;;;;;;6.78;3.13;;;;;;;1.90;100.00;102479.84;4904109;29;20052;-80
2024/01/13 02:33:51;;;;;;;6.93;3.35;;;;;;;1.90;100.00;102476.38;4888912;29;20044;-80
2024/01/13 02:36:22;;;;;;;9.00;2.97;;;;;;;1.89;100.00;102469.34;4893309;29;20052;-81
2024/01/13 02:38:50;;;;;;;10.70;3.47;;;;;;;1.88;100.00;102465.88;4902289;29;20048;-79
2024/01/13 02:41:18;;;;;;;9.27;3.80;;;;;;;1.87;100.00;102458.88;4892572;29;20052;-80
2024/01/13 02:43:45;;;;;;;6.32;3.33;;;;;;;1.87;100.00;102461.47;4908225;29;20075;-79
2024/01/13 02:46:13;;;;;;;9.93;3.40;;;;;;;1.87;100.00;102452.75;4901390;29;20044;-79
2024/01/13 02:48:44;;;;;;;10.60;3.22;;;;;;;1.88;100.00;102444.19;4890369;29;20052;-79
2024/01/13 02:51:14;;;;;;;6.35;3.42;;;;;;;1.89;100.00;102435.56;4909654;29;20055;-80
2024/01/13 02:53:43;;;;;;;8.93;3.88;;;;;;;1.90;100.00;102446.06;4900227;29;20083;-79
2024/01/13 02:56:11;;;;;;;5.57;3.28;;;;;;;1.90;100.00;102440.84;4893867;29;20044;-80
2024/01/13 02:58:39;;;;;;;13.27;4.60;;;;;;;1.92;100.00;102436.66;4891401;29;20537;-80
2024/01/13 03:01:17;;;;;;;7.60;3.42;;;;;;;1.92;100.00;102434.06;4917746;29;20051;-80
2024/01/13 03:03:49;;;;;;;7.40;3.33;;;;;;;1.94;100.00;102426.34;4883482;29;20086;-80
2024/01/13 03:06:22;;;;;;;8.32;3.38;;;;;;;1.94;100.00;102426.34;4907691;29;20063;-81
2024/01/13 03:08:55;;;;;;;9.60;3.47;;;;;;;1.94;100.00;102434.16;4901798;29;20052;-80
2024/01/13 03:11:23;;;;;;;12.10;4.10;;;;;;;1.93;100.00;102421.97;4893497;29;20059;-80
2024/01/13 03:13:54;;;;;;;12.57;3.90;;;;;;;1.91;100.00;102432.28;4909049;29;20055;-79
2024/01/13 03:16:22;;;;;;;8.30;3.35;;;;;;;1.93;100.00;102422.88;4907857;29;20043;-81
2024/01/13 03:18:50;;;;;;;6.65;3.28;;;;;;;1.93;100.00;102424.59;4901931;29;20040;-79
2024/01/13 03:21:17;;;;;;;9.30;3.15;;;;;;;1.93;100.00;102419.38;4889417;29;20137;-80
2024/01/13 03:23:45;;;;;;;11.15;4.03;;;;;;;1.92;100.00;102421.06;4908721;29;20048;-79
2024/01/13 03:26:16;;;;;;;9.25;4.65;;;;;;;1.92;100.00;102410.66;4899867;29;20048;-79
2024/01/13 03:28:43;;;;;;;8.68;3.20;;;;;;;1.94;100.00;102413.34;4892259;29;20044;-80
2024/01/13 03:31:13;;;;;;;8.25;3.25;;;;;;;1.94;100.00;102411.66;4909375;29;20052;-80
2024/01/13 03:33:45;;;;;;;8.05;3.05;;;;;;;1.94;100.00;102411.66;4902114;29;20129;-81
2024/01/13 03:36:15;;;;;;;8.20;2.72;;;;;;;1.94;100.00;102406.44;4893033;29;20044;-80
2024/01/13 03:38:43;;;;;;;6.95;3.40;;;;;;;1.95;100.00;102404.78;4891473;29;20063;-81
2024/01/13 03:41:13;;;;;;;8.88;3.88;;;;;;;1.97;100.00;102394.44;4898795;29;20075;-80
2024/01/13 03:43:42;;;;;;;5.40;2.40;;;;;;;1.95;100.00;102384.88;4891411;29;20047;-80
2024/01/13 03:46:11;;;;;;;11.15;2.55;;;;;;;1.96;100.00;102390.94;4893492;29;20048;-80
2024/01/13 03:48:38;;;;;;;7.18;2.75;;;;;;;1.95;100.00;102384.88;4899910;29;20051;-81
2024/01/13 03:51:06;;;;;;;9.57;3.00;;;;;;;1.95;100.00;102379.66;4890853;29;20116;-80
2024/01/13 03:53:35;;;;;;;5.72;2.35;;;;;;;1.96;100.00;102383.16;4920353;29;20051;-80
2024/01/13 03:56:08;;;;;;;3.78;2.30;;;;;;;1.97;100.00;102379.75;4922231;29;20050;-79
2024/01/13 03:58:38;;;;;;;4.63;2.17;;;;;;;1.97;100.00;102376.25;4879546;29;20048;-80
2024/01/13 04:01:08;;;;;;;5.45;2.08;;;;;;;1.97;100.00;102369.38;4900449;29;20056;-81
2024/01/13 04:03:38;;;;;;;5.25;2.00;;;;;;;1.98;100.00;102370.25;4886397;29;20056;-79
2024/01/13 04:06:06;;;;;;;4.18;2.05;;;;;;;1.99;100.00;102359.06;4895609;29;20052;-80
2024/01/13 04:08:34;;;;;;;5.32;2.10;;;;;;;1.98;100.00;102352.06;4889053;29;20692;-81
2024/01/13 04:11:09;;;;;;;5.35;1.95;;;;;;;1.99;100.00;102346.06;4907176;29;20060;-81
2024/01/13 04:13:37;;;;;;;5.38;1.77;;;;;;;1.99;100.00;102343.47;4888157;29;20052;-81
2024/01/13 04:16:05;;;;;;;7.80;2.00;;;;;;;1.98;100.00;102344.25;4899685;29;20056;-80
2024/01/13 04:18:33;;;;;;;2.92;1.85;;;;;;;1.97;100.00;102345.03;4910165;29;20082;-82
2024/01/13 04:21:00;;;;;;;4.18;1.63;;;;;;;1.95;100.00;102353.66;4904154;29;20067;-80
2024/01/13 04:23:46;;;;;;;6.28;1.92;;;;;;;1.95;100.00;102340.66;4892867;29;20044;-79
2024/01/13 04:26:14;;;;;;;7.82;2.20;;;;;;;1.96;100.00;102344.16;4898407;29;20052;-81
2024/01/13 04:28:42;;;;;;;4.88;1.95;;;;;;;1.95;100.00;102340.66;4901192;29;20445;-79
2024/01/13 04:31:09;;;;;;;8.30;1.88;;;;;;;1.97;100.00;102334.63;4881080;29;20048;-80
2024/01/13 04:33:37;;;;;;;5.32;2.05;;;;;;;1.97;100.00;102329.44;4909411;29;20052;-80
2024/01/13 04:36:05;;;;;;;9.43;2.42;;;;;;;1.97;100.00;102321.63;4903549;29;20524;-80
2024/01/13 04:38:32;;;;;;;9.00;2.35;;;;;;;1.97;100.00;102332.03;4892614;29;20044;-82
2024/01/13 04:41:00;;;;;;;3.78;2.20;;;;;;;1.98;100.00;102339.06;4852623;29;1283403;-80
2024/01/13 04:43:28;;;;;;;5.30;3.20;;;;;;;1.97;100.00;102322.56;4897069;29;20051;-81
2024/01/13 04:45:58;;;;;;;7.55;2.40;;;;;;;1.97;100.00;102327.75;4886695;29;21155;-80
2024/01/13 04:48:25;;;;;;;8.83;2.37;;;;;;;1.97;100.00;102332.97;4911428;29;20059;-80
2024/01/13 04:50:53;;;;;;;5.32;2.40;;;;;;;1.98;100.00;102328.66;4910499;29;20059;-79
2024/01/13 04:53:20;;;;;;;4.82;2.40;;;;;;;1.98;100.00;102341.66;4886275;29;20406;-80
2024/01/13 04:55:48;;;;;;;9.10;2.63;;;;;;;1.98;100.00;102333.84;4912320;29;20044;-81
2024/01/13 04:58:15;;;;;;;3.10;2.42;;;;;;;1.98;100.00;102323.44;4896760;29;20047;-79
2024/01/13 05:00:43;;;;;;;5.22;3.22;;;;;;;1.99;100.00;102314.88;4879061;29;20052;-81
2024/01/13 05:03:11;;;;;;;7.65;2.97;;;;;;;1.98;100.00;102313.06;4880396;29;20063;-80
2024/01/13 05:05:38;;;;;;;3.53;2.42;;;;;;;1.95;100.00;102306.88;4909805;29;20055;-80
2024/01/13 05:08:06;;;;;;;4.60;2.25;;;;;;;1.92;100.00;102298.88;4872030;29;20064;-80
2024/01/13 05:10:33;;;;;;;4.18;2.33;;;;;;;1.90;100.00;102297.00;4917600;29;20157;-79
2024/01/13 05:13:01;;;;;;;5.88;2.40;;;;;;;1.84;100.00;102291.41;4906364;29;20058;-80
2024/01/13 05:15:28;;;;;;;6.65;3.20;;;;;;;1.82;100.00;102278.31;4901806;29;20056;-79
2024/01/13 05:17:56;;;;;;;4.47;2.70;;;;;;;1.82;100.00;102280.91;4892094;29;20056;-80
2024/01/13 05:20:23;;;;;;;10.55;3.20;;;;;;;1.83;100.00;102263.63;4891844;29;20686;-80
2024/01/13 05:22:51;;;;;;;8.00;3.45;;;;;;;1.82;100.00;102260.13;4885703;29;20528;-80
2024/01/13 05:25:19;;;;;;;10.70;3.25;;;;;;;1.80;100.00;102253.94;4872856;29;20049;-80
2024/01/13 05:27:46;;;;;;;7.40;3.03;;;;;;;1.81;100.00;102258.31;4909656;29;20044;-80
2024/01/13 05:30:14;;;;;;;10.13;2.78;;;;;;;1.81;100.00;102234.91;4900903;29;20056;-79
2024/01/13 05:32:42;;;;;;;9.50;3.00;;;;;;;1.82;100.00;102217.66;4879327;29;20067;-79
2024/01/13 05:35:10;;;;;;;10.27;3.70;;;;;;;1.83;100.00;102211.63;4896872;29;20057;-79
2024/01/13 05:37:37;;;;;;;8.02;3.20;;;;;;;1.85;100.00;102223.00;4893775;29;20063;-80
2024/01/13 05:40:05;;;;;;;7.60;3.13;;;;;;;1.87;100.00;102231.78;4893884;29;20417;-80
2024/01/13 05:42:34;;;;;;;13.40;3.88;;;;;;;1.87;100.00;102229.19;4900575;29;20060;-79
2024/01/13 05:45:02;;;;;;;9.32;4.20;;;;;;;1.87;100.00;102224.91;4898048;29;20080;-80
2024/01/13 05:47:29;;;;;;;8.90;3.15;;;;;;;1.86;100.00;102237.81;4902312;29;20083;-81
2024/01/13 05:49:57;;;;;;;8.43;4.13;;;;;;;1.86;100.00;102232.63;4907445;29;20059;-80
2024/01/13 05:52:25;;;;;;;10.60;3.80;;;;;;;1.88;100.00;102236.22;4898094;29;20052;-80
2024/01/13 05:54:52;;;;;;;11.55;4.95;;;;;;;1.89;100.00;102230.19;4902980;29;20052;-79
2024/01/13 05:57:20;;;;;;;7.93;3.72;;;;;;;1.88;100.00;102215.41;4905472;29;20096;-81
2024/01/13 05:59:48;;;;;;;11.02;3.38;;;;;;;1.87;100.00;102204.13;4894620;29;20055;-80
2024/01/13 06:02:15;;;;;;;5.90;3.67;;;;;;;1.88;100.00;102199.81;4912440;29;20052;-79
2024/01/13 06:04:43;;;;;;;7.85;3.50;;;;;;;1.88;100.00;102200.69;4882226;29;20418;-79
2024/01/13 06:07:11;;;;;;;6.57;3.20;;;;;;;1.87;100.00;102198.94;4907858;29;20048;-79
2024/01/13 06:09:41;;;;;;;6.07;3.22;;;;;;;1.87;100.00;102193.72;4897076;29;20083;-80
2024/01/13 06:12:09;;;;;;;11.80;3.15;;;;;;;1.88;100.00;102182.50;4873906;29;20502;-78
2024/01/13 06:14:37;;;;;;;7.82;2.60;;;;;;;1.87;100.00;102183.31;4886061;29;20056;-82
2024/01/13 06:17:04;;;;;;;6.53;2.55;;;;;;;1.87;100.00;102177.22;4911023;29;20048;-83
2024/01/13 06:19:32;;;;;;;5.50;2.92;;;;;;;1.87;100.00;102187.59;4881371;29;20059;-83
2024/01/13 06:21:59;;;;;;;8.30;3.15;;;;;;;1.90;100.00;102187.81;4893521;29;20068;-82
2024/01/13 06:24:27;;;;;;;4.10;3.10;;;;;;;1.89;100.00;102176.50;4900020;29;20055;-83
2024/01/13 06:26:54;;;;;;;7.18;2.83;;;;;;;1.91;100.00;102181.78;4911480;29;20413;-82
2024/01/13 06:29:22;;;;;;;8.35;3.50;;;;;;;1.91;100.00;102169.69;4888161;29;20052;-82
2024/01/13 06:31:49;;;;;;;11.77;3.60;;;;;;;1.90;100.00;102157.50;4913324;29;20052;-82
2024/01/13 06:34:18;;;;;;;6.93;3.38;;;;;;;1.90;100.00;102147.09;4910524;29;20506;-83
2024/01/13 06:36:45;;;;;;;15.15;3.97;;;;;;;1.90;100.00;102141.91;4913334;29;20060;-83
2024/01/13 06:39:13;;;;;;;8.52;3.65;;;;;;;1.88;100.00;102130.50;4890243;29;20064;-82
2024/01/13 06:41:41;;;;;;;6.43;3.47;;;;;;;1.88;100.00;102120.13;4911449;29;20055;-83
2024/01/13 06:44:08;;;;;;;6.18;3.28;;;;;;;1.90;100.00;102135.81;4893297;29;20074;-84
2024/01/13 06:46:35;;;;;;;12.07;3.70;;;;;;;1.89;100.00;102137.53;4908522;29;20079;-83
2024/01/13 06:49:03;;;;;;;8.02;3.42;;;;;;;1.88;100.00;102120.13;4926919;29;20056;-84
2024/01/13 06:51:31;;;;;;;8.02;3.17;;;;;;;1.89;100.00;102121.94;4896442;29;20059;-81
2024/01/13 06:53:58;;;;;;;6.93;3.13;;;;;;;1.89;100.00;102119.31;4907955;29;20067;-83
2024/01/13 06:56:26;;;;;;;5.80;3.20;;;;;;;1.89;100.00;102119.31;4904050;29;20048;-84
2024/01/13 06:58:54;;;;;;;7.95;3.35;;;;;;;1.90;100.00;102097.69;4895422;29;20044;-82
2024/01/13 07:01:21;;;;;;;8.55;3.58;;;;;;;1.90;100.00;102102.03;4887174;29;20071;-82
2024/01/13 07:03:49;;;;;;;9.60;3.28;;;;;;;1.90;100.00;102108.09;4907756;29;20048;-82
2024/01/13 07:06:17;;;;;;;6.57;3.08;;;;;;;1.92;100.00;102111.69;4899826;29;20110;-84
2024/01/13 07:08:44;;;;;;;10.60;3.28;;;;;;;1.94;100.00;102106.59;4897724;29;20044;-81
2024/01/13 07:11:13;;;;;;;6.15;3.28;;;;;;;1.93;100.00;102095.28;4904523;29;20756;-84
2024/01/13 07:13:44;;;;;;;7.05;3.45;;;;;;;1.97;100.00;102092.84;4887773;29;20063;-83
2024/01/13 07:16:12;;;;;;;5.22;2.97;;;;;;;1.98;100.00;102086.88;4895375;29;20059;-83
2024/01/13 07:18:40;;;;;;;7.30;3.42;;;;;;;1.98;100.00;102100.75;4907713;29;20057;-83
2024/01/13 07:21:08;;;;;;;6.05;3.25;;;;;;;2.00;100.00;102096.53;4893284;29;20057;-83
2024/01/13 07:23:36;;;;;;;6.70;2.85;;;;;;;2.01;100.00;102076.66;4894660;29;20538;-82
2024/01/13 07:26:06;;;;;;;6.25;2.90;;;;;;;2.01;100.00;102082.75;4904053;29;20059;-83
2024/01/13 07:28:34;;;;;;;7.82;3.10;;;;;;;2.04;100.00;102087.22;4910832;29;20055;-83
2024/01/13 07:31:01;;;;;;;7.43;3.22;;;;;;;2.03;100.00;102088.91;4903669;29;20066;-83
2024/01/13 07:33:29;;;;;;;4.40;2.60;;;;;;;2.06;100.00;102093.38;4899577;29;20052;-82
2024/01/13 07:35:56;;;;;;;5.07;2.75;;;;;;;2.08;100.00;102094.38;4911904;29;20523;-83
2024/01/13 07:38:24;;;;;;;5.03;2.30;;;;;;;2.10;100.00;102087.59;4895644;29;20479;-83
2024/01/13 07:40:54;;;;;;;5.30;2.65;;;;;;;2.11;100.00;102084.16;4922130;29;20056;-82
2024/01/13 07:43:21;;;;;;;7.05;2.33;;;;;;;2.12;100.00;102083.38;4905440;29;20074;-82
2024/01/13 07:45:52;;;;;;;5.43;2.33;;;;;;;2.13;100.00;102083.44;4914126;29;20485;-83
2024/01/13 07:48:19;;;;;;;5.90;2.72;;;;;;;2.14;100.00;102084.34;4897832;29;20051;-83
2024/01/13 07:50:50;;;;;;;4.07;2.90;;;;;;;2.14;100.00;102082.63;4901684;29;20056;-83
2024/01/13 07:53:18;;;;;;;6.15;3.13;;;;;;;2.16;100.00;102085.31;4882394;29;20497;-83
2024/01/13 07:55:45;;;;;;;5.78;3.30;;;;;;;2.17;100.00;102086.22;4900894;29;20051;-83
2024/01/13 07:58:13;;;;;;;6.00;3.17;;;;;;;2.18;100.00;102085.41;4900823;29;20052;-83
2024/01/13 08:00:40;;;;;;;7.13;3.65;;;;;;;2.18;100.00;102080.22;4912424;29;20529;-82
2024/01/13 08:03:08;;;;;;;12.18;5.38;;;;;;;2.16;100.00;102067.13;4894101;29;20059;-83
2024/01/13 08:05:38;;;;;;;12.70;5.28;;;;;;;2.18;100.00;102069.81;4911396;29;20048;-82
2024/01/13 08:08:07;;;;;;;11.85;5.40;;;;;;;2.18;100.00;102060.31;4913606;29;20528;-82
2024/01/13 08:10:38;;;;;;;21.10;8.05;;;;;;;2.17;100.00;102053.28;4883516;29;20055;-81
2024/01/13 08:13:05;;;;;;;21.23;8.15;;;;;;;2.19;100.00;102059.47;4896417;29;20059;-82
2024/01/13 08:15:35;;;;;;;18.55;7.90;;;;;;;2.19;100.00;102055.97;4897431;29;20060;-82
2024/01/13 08:18:03;;;;;;;19.98;9.15;;;;;;;2.19;100.00;102053.38;4899095;29;20063;-83
2024/01/13 08:20:31;;;;;;;23.40;9.52;;;;;;;2.19;100.00;102042.97;4907028;29;20580;-83
2024/01/13 08:22:59;;;;;;;28.35;12.68;;;;;;;2.19;100.00;102046.47;4907632;29;20066;-82
2024/01/13 08:25:27;;;;;;;27.27;13.38;;;;;;;2.20;100.00;102057.78;4918027;29;20058;-84
2024/01/13 08:27:54;;;;;;;31.88;15.00;;;;;;;2.19;100.00;102046.47;4906468;29;20055;-83
2024/01/13 08:30:23;;;;;;;32.33;15.98;;;;;;;2.20;100.00;102040.47;4905094;29;20059;-83
2024/01/13 08:32:51;;;;;;;35.10;17.45;;;;;;;2.19;100.00;102040.38;4899662;29;20074;-82
2024/01/13 08:35:18;;;;;;;37.17;18.70;;;;;;;2.21;100.00;102043.97;4926841;29;20517;-81
2024/01/13 08:37:47;;;;;;;42.05;20.23;;;;;;;2.19;100.00;102033.47;4914360;29;20051;-81
2024/01/13 08:40:14;;;;;;;51.75;22.85;;;;;;;2.19;100.00;102036.06;4909576;29;20064;-82
2024/01/13 08:42:41;;;;;;;54.13;23.60;;;;;;;2.19;100.00;102033.47;4912462;29;20441;-83
2024/01/13 08:45:09;;;;;;;50.80;23.60;;;;;;;2.21;100.00;102020.56;4902185;29;20052;-83
2024/01/13 08:47:38;;;;;;;62.53;27.42;;;;;;;2.20;100.00;102022.28;4929650;29;20043;-83
2024/01/13 08:50:06;;;;;;;68.82;30.25;;;;;;;2.21;100.00;102016.28;4888488;29;20087;-84
2024/01/13 08:52:34;;;;;;;76.55;34.40;;;;;;;2.23;100.00;102013.72;4906895;29;20056;-82
2024/01/13 08:55:01;;;;;;;87.78;35.67;;;;;;;2.25;100.00;102005.22;4891706;29;20056;-82
2024/01/13 08:57:29;;;;;;;85.85;38.03;;;;;;;2.27;100.00;102003.59;4901013;29;20430;-81
2024/01/13 08:59:56;;;;;;;88.50;39.88;;;;;;;2.30;100.00;102005.47;4921286;29;20060;-83
2024/01/13 09:02:24;;;;;;;89.80;39.70;;;;;;;2.31;100.00;101997.75;4921439;29;20056;-83
2024/01/13 09:04:54;;;;;;;97.57;44.03;;;;;;;2.30;100.00;101997.66;4890064;29;20481;-82
2024/01/13 09:07:22;;;;;;;94.28;41.88;;;;;;;2.29;100.00;101995.88;4894698;29;20055;-82
2024/01/13 09:09:49;;;;;;;85.20;41.05;;;;;;;2.28;100.00;101981.06;4905650;29;20165;-83
2024/01/13 09:12:17;;;;;;;82.45;39.90;;;;;;;2.26;100.00;101991.38;4900068;29;20059;-83
2024/01/13 09:14:45;;;;;;;96.22;41.08;;;;;;;2.26;100.00;101995.72;4912917;29;20048;-82
2024/01/13 09:17:13;;;;;;;87.90;40.67;;;;;;;2.25;100.00;101988.69;4885350;29;20525;-82
2024/01/13 09:19:40;;;;;;;82.20;39.38;;;;;;;2.25;100.00;101988.69;4892906;29;20064;-82
2024/01/13 09:22:08;;;;;;;81.53;41.05;;;;;;;2.24;100.00;101986.94;4917861;29;20819;-82
2024/01/13 09:24:35;;;;;;;92.40;41.00;;;;;;;2.25;100.00;101988.69;4904600;29;20073;-83
2024/01/13 09:27:03;;;;;;;88.57;41.13;;;;;;;2.26;100.00;101982.69;4897965;29;20044;-83
2024/01/13 09:29:31;;;;;;;86.50;41.97;;;;;;;2.27;100.00;101980.19;4914709;29;20043;-82
2024/01/13 09:31:59;;;;;;;87.55;41.05;;;;;;;2.29;100.00;101975.97;4895117;29;20509;-83
2024/01/13 09:34:27;;;;;;;91.22;41.95;;;;;;;2.32;100.00;101964.81;4894456;29;20063;-83
2024/01/13 09:36:55;;;;;;;87.82;41.75;;;;;;;2.34;100.00;101973.59;4898339;29;20059;-82
2024/01/13 09:39:22;;;;;;;98.13;42.85;;;;;;;2.37;100.00;101962.50;4896567;29;20052;-82
2024/01/13 09:41:54;;;;;;;95.88;43.63;;;;;;;2.37;100.00;101960.78;4899313;29;20048;-82
2024/01/13 09:44:23;;;;;;;97.28;43.75;;;;;;;2.38;100.00;101946.94;4911530;29;20056;-82
2024/01/13 09:46:54;;;;;;;104.50;42.05;;;;;;;2.40;100.00;101953.16;4888492;29;20066;-81
2024/01/13 09:49:30;;;;;;;84.28;40.42;;;;;;;2.41;100.00;101954.91;4888116;29;20056;-83
2024/01/13 09:52:05;;;;;;;87.27;39.60;;;;;;;2.43;100.00;101953.28;4883412;29;20056;-82
2024/01/13 09:54:33;;;;;;;87.40;41.22;;;;;;;2.45;100.00;101950.78;4905297;29;20789;-83
2024/01/13 09:57:01;;;;;;;92.32;43.47;;;;;;;2.44;100.00;101955.09;4899227;29;20514;-82
2024/01/13 09:59:29;;;;;;;88.95;42.65;;;;;;;2.46;100.00;101952.59;4912875;29;20047;-82
2024/01/13 10:02:02;;;;;;;84.85;42.45;;;;;;;2.48;100.00;101949.25;4898237;29;20052;-82
2024/01/13 10:04:37;;;;;;;84.70;42.45;;;;;;;2.49;100.00;101952.72;4919035;29;20059;-83
2024/01/13 10:07:09;;;;;;;80.93;40.67;;;;;;;2.51;100.00;101949.41;4898091;29;20517;-83
2024/01/13 10:09:38;;;;;;;85.07;39.58;;;;;;;2.55;100.00;101945.25;4898932;29;20052;-83
2024/01/13 10:12:07;;;;;;;74.28;37.67;;;;;;;2.58;100.00;101940.22;4903197;29;20059;-82
2024/01/13 10:14:41;;;;;;;79.45;38.42;;;;;;;2.62;100.00;101938.66;4911087;29;20052;-83
2024/01/13 10:17:11;;;;;;;78.90;39.70;;;;;;;2.64;100.00;101939.66;4912243;29;20048;-81
2024/01/13 10:19:42;;;;;;;72.37;37.57;;;;;;;2.66;100.00;101938.91;4903052;29;20055;-82
2024/01/13 10:22:13;;;;;;;78.72;37.03;;;;;;;2.68;100.00;101934.66;4896452;29;20812;-82
2024/01/13 10:24:41;;;;;;;78.50;38.00;;;;;;;2.72;100.00;101935.72;4897282;29;20058;-82
2024/01/13 10:27:08;;;;;;;81.10;36.05;;;;;;;2.75;100.00;101935.00;4928171;29;20056;-81
2024/01/13 10:29:40;;;;;;;59.47;33.45;;;;;;;2.77;100.00;101934.25;4896046;29;20502;-84
2024/01/13 10:32:10;;;;;;;65.15;33.75;;;;;;;2.82;100.00;101930.19;4911661;29;20051;-83
2024/01/13 10:34:45;;;;;;;68.05;31.50;;;;;;;2.85;100.00;101930.34;4888373;29;20063;-84
2024/01/13 10:37:13;;;;;;;54.65;29.45;;;;;;;2.87;100.00;101917.41;4893236;29;20063;-82
2024/01/13 10:39:41;;;;;;;54.40;26.90;;;;;;;2.91;100.00;101908.94;4880212;29;20063;-82
2024/01/13 10:42:10;;;;;;;57.88;27.85;;;;;;;2.96;100.00;101903.97;4910999;29;20056;-82
2024/01/13 10:44:50;;;;;;;56.95;28.67;;;;;;;3.00;100.00;101901.59;4895059;29;20047;-81
2024/01/13 10:47:25;;;;;;;58.60;28.73;;;;;;;3.04;100.00;101893.13;4912400;29;20043;-82
2024/01/13 10:49:53;;;;;;;54.80;26.90;;;;;;;3.09;100.00;101901.19;4899602;29;20040;-81
2024/01/13 10:52:29;;;;;;;55.92;26.70;;;;;;;3.11;100.00;101890.00;4873876;29;20047;-83
2024/01/13 10:55:01;;;;;;;52.63;24.35;;;;;;;3.13;100.00;101888.38;4887444;29;20057;-83
2024/01/13 10:57:29;;;;;;;52.60;23.63;;;;;;;3.18;100.00;101891.22;4908899;29;20414;-82
2024/01/13 10:59:58;;;;;;;39.75;19.13;;;;;;;3.20;100.00;101889.59;4913541;29;20055;-81
2024/01/13 11:02:30;;;;;;;46.00;20.95;;;;;;;3.21;100.00;101885.28;4897113;29;20450;-82
2024/01/13 11:04:59;;;;;;;35.50;19.65;;;;;;;3.20;100.00;101884.38;4903638;29;20056;-81
2024/01/13 11:07:27;;;;;;;40.58;18.60;;;;;;;3.21;100.00;101885.28;4894097;29;20055;-82
2024/01/13 11:09:57;;;;;;;30.40;17.48;;;;;;;3.22;100.00;101887.06;4901415;29;20052;-83
2024/01/13 11:12:39;;;;;;;36.05;18.13;;;;;;;3.22;100.00;101887.97;4910152;29;20048;-82
2024/01/13 11:15:26;;;;;;;39.13;17.23;;;;;;;3.23;100.00;101871.53;4922371;29;20059;-81
2024/01/13 11:17:54;;;;;;;35.95;15.98;;;;;;;3.23;100.00;101871.53;4904297;29;20056;-83
2024/01/13 11:20:22;;;;;;;45.92;16.77;;;;;;;3.25;100.00;101866.34;4896548;29;20112;-81
2024/01/13 11:22:59;;;;;;;29.33;15.32;;;;;;;3.25;100.00;101851.66;4888853;29;20561;-82
2024/01/13 11:25:28;;;;;;;40.17;16.58;;;;;;;3.26;100.00;101855.13;4898150;29;20165;-82
2024/01/13 11:27:58;;;;;;;39.47;16.40;;;;;;;3.27;100.00;101849.09;4896144;29;20048;-84